createdAt,value
2019-04-14T00:00:51.489Z,1.37
2019-04-14T00:03:19.821Z,1.23
2019-04-14T00:05:48.055Z,3.03
2019-04-14T00:08:15.496Z,2.27
2019-04-14T00:10:42.183Z,1.70
2019-04-14T00:13:09.002Z,1.77
2019-04-14T00:15:41.090Z,3.13
2019-04-14T00:18:03.701Z,1.40
2019-04-14T00:20:30.043Z,1.20
2019-04-14T00:22:57.575Z,1.30
2019-04-14T00:25:24.060Z,3.47
2019-04-14T00:27:50.410Z,1.30
2019-04-14T00:30:18.804Z,1.40
2019-04-14T00:32:59.469Z,1.20
2019-04-14T00:35:44.914Z,1.67
2019-04-14T00:38:25.993Z,1.00
2019-04-14T00:41:03.180Z,1.17
2019-04-14T00:43:40.222Z,1.87
2019-04-14T00:46:09.949Z,2.53
2019-04-14T00:48:36.665Z,1.97
2019-04-14T00:51:03.125Z,0.97
2019-04-14T00:53:29.779Z,1.10
2019-04-14T00:55:56.104Z,1.03
2019-04-14T00:58:23.529Z,2.03
2019-04-14T01:00:50.304Z,1.30
2019-04-14T01:03:17.802Z,1.20
2019-04-14T01:05:44.162Z,1.97
2019-04-14T01:08:10.496Z,1.10
2019-04-14T01:10:36.921Z,1.30
2019-04-14T01:13:03.490Z,1.07
2019-04-14T01:15:31.066Z,1.40
2019-04-14T01:17:59.221Z,3.07
2019-04-14T01:20:25.877Z,1.43
2019-04-14T01:22:53.182Z,3.17
2019-04-14T01:25:21.519Z,0.80
2019-04-14T01:27:47.861Z,1.10
2019-04-14T01:30:15.373Z,1.30
2019-04-14T01:32:41.651Z,1.37
2019-04-14T01:35:07.994Z,1.37
2019-04-14T01:37:35.377Z,2.17
2019-04-14T01:40:03.188Z,1.53
2019-04-14T01:42:29.533Z,1.30
2019-04-14T01:44:57.066Z,1.33
2019-04-14T01:47:23.278Z,1.00
2019-04-14T01:49:50.778Z,1.40
2019-04-14T01:52:23.116Z,2.93
2019-04-14T01:55:03.162Z,1.10
2019-04-14T01:57:32.798Z,1.57
2019-04-14T02:00:01.128Z,1.40
2019-04-14T02:02:29.051Z,1.90
2019-04-14T02:04:55.598Z,2.63
2019-04-14T02:07:23.275Z,1.20
2019-04-14T02:09:50.853Z,1.20
2019-04-14T02:12:17.657Z,1.63
2019-04-14T02:14:45.094Z,2.60
2019-04-14T02:17:11.437Z,3.83
2019-04-14T02:19:39.165Z,1.27
2019-04-14T02:22:05.726Z,1.37
2019-04-14T02:24:33.084Z,1.20
2019-04-14T02:26:59.450Z,1.33
2019-04-14T02:29:25.919Z,1.40
2019-04-14T02:32:30.349Z,1.30
2019-04-14T02:39:46.579Z,1.40
2019-04-14T02:42:17.516Z,1.20
2019-04-14T02:44:51.966Z,1.30
2019-04-14T02:47:29.404Z,1.70
2019-04-14T02:49:36.807Z,1.87
2019-04-14T02:52:04.474Z,1.30
2019-04-14T02:54:54.152Z,1.13
2019-04-14T02:57:03.641Z,1.27
2019-04-14T02:59:26.869Z,4.37
2019-04-14T03:02:19.671Z,1.10
2019-04-14T03:07:02.595Z,1.53
2019-04-14T03:09:32.399Z,1.50
2019-04-14T03:11:46.007Z,1.27
2019-04-14T03:14:15.254Z,1.20
2019-04-14T03:17:19.348Z,1.13
2019-04-14T03:19:41.544Z,1.87
2019-04-14T03:22:12.381Z,1.40
2019-04-14T03:24:31.765Z,1.40
2019-04-14T03:27:04.975Z,1.87
2019-04-14T03:34:39.266Z,2.17
2019-04-14T03:37:31.998Z,1.53
2019-04-14T03:42:00.985Z,2.10
2019-04-14T03:47:03.085Z,1.40
2019-04-14T03:49:32.088Z,1.30
2019-04-14T03:51:57.956Z,1.47
2019-04-14T03:54:15.629Z,1.50
2019-04-14T03:56:46.661Z,2.50
2019-04-14T03:59:13.328Z,1.73
2019-04-14T04:01:39.773Z,1.90
2019-04-14T04:04:06.026Z,2.20
2019-04-14T04:06:33.415Z,2.23
2019-04-14T04:08:59.901Z,1.40
2019-04-14T04:11:26.386Z,2.67
2019-04-14T04:13:54.119Z,1.40
2019-04-14T04:16:22.444Z,1.50
2019-04-14T04:18:57.887Z,2.27
2019-04-14T04:21:22.718Z,1.43
2019-04-14T04:23:57.547Z,2.30
2019-04-14T04:26:32.208Z,1.53
2019-04-14T04:29:00.579Z,1.30
2019-04-14T04:31:37.757Z,1.77
2019-04-14T04:34:22.717Z,3.13
2019-04-14T04:36:53.809Z,1.50
2019-04-14T04:39:25.690Z,1.87
2019-04-14T04:41:52.101Z,2.90
2019-04-14T04:44:18.438Z,2.30
2019-04-14T04:46:45.973Z,1.40
2019-04-14T04:49:20.127Z,1.47
2019-04-14T04:51:40.651Z,1.50
2019-04-14T04:54:08.095Z,1.47
2019-04-14T04:56:34.433Z,1.33
2019-04-14T04:59:01.154Z,1.57
2019-04-14T05:01:27.663Z,1.60
2019-04-14T05:03:54.088Z,1.40
2019-04-14T05:06:48.438Z,2.40
2019-04-14T05:09:19.525Z,1.60
2019-04-14T05:11:55.135Z,1.70
2019-04-14T05:14:26.440Z,1.83
2019-04-14T05:16:52.839Z,2.63
2019-04-14T05:19:25.767Z,4.73
2019-04-14T05:21:47.446Z,1.40
2019-04-14T05:24:13.813Z,1.47
2019-04-14T05:26:40.063Z,1.63
2019-04-14T05:29:06.361Z,1.23
2019-04-14T05:31:33.639Z,1.70
2019-04-14T05:34:00.221Z,4.23
2019-04-14T05:36:26.642Z,1.43
2019-04-14T05:38:54.068Z,1.60
2019-04-14T05:41:20.621Z,1.37
2019-04-14T05:43:52.008Z,1.50
2019-04-14T05:46:16.263Z,2.07
2019-04-14T05:48:42.599Z,1.97
2019-04-14T05:51:09.029Z,1.70
2019-04-14T05:53:35.477Z,1.50
2019-04-14T05:56:01.939Z,1.90
2019-04-14T05:58:29.585Z,1.60
2019-04-14T06:00:56.100Z,1.60
2019-04-14T06:03:23.469Z,2.57
2019-04-14T06:05:49.979Z,1.47
2019-04-14T06:08:16.216Z,1.40
2019-04-14T06:10:42.745Z,1.50
2019-04-14T06:13:11.634Z,2.60
2019-04-14T06:15:37.201Z,1.77
2019-04-14T06:18:03.842Z,1.70
2019-04-14T06:20:30.486Z,1.77
2019-04-14T06:22:56.728Z,2.30
2019-04-14T06:25:23.182Z,2.13
2019-04-14T06:27:49.508Z,2.50
2019-04-14T06:30:27.213Z,1.63
2019-04-14T06:32:54.849Z,1.70
2019-04-14T06:35:39.349Z,1.50
2019-04-14T06:38:10.236Z,1.93
2019-04-14T06:40:41.093Z,2.33
2019-04-14T06:43:07.436Z,2.20
2019-04-14T06:45:33.885Z,1.60
2019-04-14T06:48:00.132Z,3.30
2019-04-14T06:50:26.571Z,1.30
2019-04-14T06:52:52.809Z,2.20
2019-04-14T06:55:19.273Z,1.47
2019-04-14T06:57:45.608Z,1.87
2019-04-14T07:00:12.061Z,2.35
2019-04-14T07:02:38.318Z,1.52
2019-04-14T07:05:05.148Z,1.67
2019-04-14T07:07:31.488Z,2.33
2019-04-14T07:09:57.734Z,1.32
2019-04-14T07:12:23.986Z,4.60
2019-04-14T07:14:50.224Z,2.35
2019-04-14T07:17:16.488Z,2.08
2019-04-14T07:19:42.744Z,3.12
2019-04-14T07:22:09.094Z,2.02
2019-04-14T07:24:35.361Z,1.70
2019-04-14T07:27:01.895Z,1.90
2019-04-14T07:29:30.049Z,2.50
2019-04-14T07:32:13.390Z,2.33
2019-04-14T07:34:47.377Z,3.65
2019-04-14T07:37:24.525Z,1.50
2019-04-14T07:39:58.789Z,7.28
2019-04-14T07:42:27.310Z,3.30
2019-04-14T07:44:55.442Z,1.57
2019-04-14T07:47:41.598Z,2.98
2019-04-14T07:50:24.874Z,3.25
2019-04-14T07:53:01.998Z,1.95
2019-04-14T07:55:45.048Z,3.00
2019-04-14T07:58:13.502Z,3.47
2019-04-14T08:00:47.490Z,2.03
2019-04-14T08:03:15.932Z,2.00
2019-04-14T08:05:44.063Z,2.67
2019-04-14T08:08:10.497Z,2.35
2019-04-14T08:10:37.025Z,2.47
2019-04-14T08:13:03.452Z,3.22
2019-04-14T08:15:29.905Z,1.95
2019-04-14T08:17:56.525Z,1.57
2019-04-14T08:20:27.655Z,4.70
2019-04-14T08:22:50.997Z,1.37
2019-04-14T08:25:17.644Z,1.25
2019-04-14T08:27:43.877Z,2.55
2019-04-14T08:30:10.322Z,5.08
2019-04-14T08:32:36.886Z,4.80
2019-04-14T08:35:05.316Z,1.27
2019-04-14T08:37:31.557Z,2.40
2019-04-14T08:39:58.105Z,2.70
2019-04-14T08:42:29.227Z,1.20
2019-04-14T08:44:57.591Z,1.30
2019-04-14T08:47:34.624Z,1.52
2019-04-14T08:50:05.544Z,1.22
2019-04-14T08:52:33.781Z,1.17
2019-04-14T08:55:04.673Z,1.30
2019-04-14T08:57:38.545Z,1.20
2019-04-14T09:00:07.194Z,1.40
2019-04-14T09:02:41.312Z,1.30
2019-04-14T09:05:18.555Z,1.50
2019-04-14T09:07:46.801Z,1.45
2019-04-14T09:10:17.796Z,2.75
2019-04-14T09:12:46.177Z,2.67
2019-04-14T09:15:12.614Z,1.45
2019-04-14T09:17:38.956Z,1.82
2019-04-14T09:20:05.431Z,1.55
2019-04-14T09:22:31.768Z,2.02
2019-04-14T09:24:58.104Z,1.30
2019-04-14T09:27:24.380Z,1.52
2019-04-14T09:29:52.320Z,1.60
2019-04-14T09:32:19.288Z,1.92
2019-04-14T09:34:45.612Z,1.50
2019-04-14T09:37:12.276Z,1.77
2019-04-14T09:39:38.597Z,2.08
2019-04-14T09:42:04.973Z,1.92
2019-04-14T09:44:31.221Z,2.00
2019-04-14T09:46:57.684Z,1.42
2019-04-14T09:49:24.302Z,1.70
2019-04-14T09:51:50.622Z,1.62
2019-04-14T09:54:17.065Z,2.55
2019-04-14T09:56:43.543Z,1.67
2019-04-14T09:59:09.822Z,1.98
2019-04-14T10:01:36.153Z,1.67
2019-04-14T10:04:02.890Z,2.22
2019-04-14T10:06:29.313Z,1.95
2019-04-14T10:08:55.761Z,1.50
2019-04-14T10:11:22.188Z,1.82
2019-04-14T10:13:48.422Z,1.80
2019-04-14T10:16:14.765Z,1.70
2019-04-14T10:18:41.225Z,1.67
2019-04-14T10:21:16.835Z,2.20
2019-04-14T10:23:35.723Z,1.67
2019-04-14T10:26:02.189Z,2.75
2019-04-14T10:28:28.556Z,2.33
2019-04-14T10:30:54.994Z,1.60
2019-04-14T10:33:21.435Z,2.08
2019-04-14T10:35:47.677Z,1.60
2019-04-14T10:38:14.015Z,1.62
2019-04-14T10:40:40.260Z,1.70
2019-04-14T10:43:06.708Z,1.90
2019-04-14T10:45:33.053Z,3.10
2019-04-14T10:47:59.505Z,1.70
2019-04-14T10:50:30.962Z,2.85
2019-04-14T10:52:53.901Z,1.72
2019-04-14T10:55:20.161Z,1.70
2019-04-14T10:57:46.596Z,2.10
2019-04-14T11:00:14.940Z,2.65
2019-04-14T11:02:41.463Z,1.92
2019-04-14T11:05:08.010Z,1.60
2019-04-14T11:07:34.341Z,1.60
2019-04-14T11:10:01.015Z,4.08
2019-04-14T11:12:27.337Z,2.00
2019-04-14T11:14:53.696Z,2.42
2019-04-14T11:17:20.279Z,2.00
2019-04-14T11:19:46.493Z,1.70
2019-04-14T11:22:12.645Z,2.50
2019-04-14T11:24:39.107Z,2.00
2019-04-14T11:27:05.556Z,1.70
2019-04-14T11:29:32.001Z,1.65
2019-04-14T11:32:12.380Z,2.55
2019-04-14T11:34:40.538Z,2.37
2019-04-14T11:37:08.773Z,2.72
2019-04-14T11:39:35.217Z,2.40
2019-04-14T11:42:01.565Z,2.00
2019-04-14T11:44:27.993Z,1.70
2019-04-14T11:46:54.343Z,2.02
2019-04-14T11:49:20.676Z,2.22
2019-04-14T11:51:55.266Z,1.92
2019-04-14T11:54:15.198Z,2.00
2019-04-14T11:56:41.658Z,2.15
2019-04-14T11:59:08.096Z,1.60
2019-04-14T12:01:51.362Z,1.72
2019-04-14T12:04:25.469Z,2.00
2019-04-14T12:06:53.829Z,1.85
2019-04-14T12:09:22.065Z,1.50
2019-04-14T12:11:48.409Z,1.70
2019-04-14T12:14:14.859Z,1.70
2019-04-14T12:16:41.282Z,2.12
2019-04-14T12:19:07.620Z,1.77
2019-04-14T12:21:33.993Z,3.05
2019-04-14T12:24:00.236Z,2.08
2019-04-14T12:26:26.581Z,2.20
2019-04-14T12:28:53.720Z,2.65
2019-04-14T12:31:20.076Z,2.02
2019-04-14T12:33:46.422Z,1.77
2019-04-14T12:36:12.772Z,2.70
2019-04-14T12:38:39.212Z,1.90
2019-04-14T12:41:08.220Z,2.05
2019-04-14T12:43:39.369Z,1.90
2019-04-14T12:46:13.373Z,1.80
2019-04-14T12:48:50.644Z,1.70
2019-04-14T12:51:20.494Z,1.90
2019-04-14T12:53:47.122Z,2.00
2019-04-14T12:56:15.486Z,1.80
2019-04-14T12:58:55.641Z,2.20
2019-04-14T13:01:23.989Z,4.67
2019-04-14T13:03:50.339Z,2.20
2019-04-14T13:06:16.763Z,1.87
2019-04-14T13:08:43.208Z,2.02
2019-04-14T13:11:09.640Z,2.10
2019-04-14T13:13:36.086Z,2.30
2019-04-14T13:16:02.619Z,1.95
2019-04-14T13:18:28.937Z,2.42
2019-04-14T13:20:55.286Z,2.08
2019-04-14T13:23:21.545Z,2.20
2019-04-14T13:25:47.885Z,1.90
2019-04-14T13:28:14.221Z,1.85
2019-04-14T13:30:42.375Z,2.00
2019-04-14T13:33:08.795Z,2.60
2019-04-14T13:35:35.137Z,2.85
2019-04-14T13:38:01.547Z,2.00
2019-04-14T13:40:28.002Z,1.67
2019-04-14T13:42:54.434Z,2.50
2019-04-14T13:45:20.928Z,2.00
2019-04-14T13:47:47.186Z,2.05
2019-04-14T13:50:13.604Z,2.22
2019-04-14T13:52:46.676Z,2.08
2019-04-14T13:55:08.213Z,1.75
2019-04-14T13:57:34.752Z,1.82
2019-04-14T14:00:01.202Z,2.87
2019-04-14T14:02:27.537Z,1.70
2019-04-14T14:04:53.781Z,1.80
2019-04-14T14:07:20.135Z,2.17
2019-04-14T14:09:46.577Z,2.35
2019-04-14T14:12:23.577Z,1.70
2019-04-14T14:14:54.436Z,2.40
2019-04-14T14:17:22.828Z,1.77
2019-04-14T14:19:51.212Z,1.70
2019-04-14T14:22:22.055Z,2.17
2019-04-14T14:25:02.514Z,1.77
2019-04-14T14:27:28.744Z,1.87
2019-04-14T14:29:54.977Z,2.42
2019-04-14T14:32:29.401Z,2.05
2019-04-14T14:34:55.854Z,2.35
2019-04-14T14:37:22.292Z,2.35
2019-04-14T14:39:48.773Z,2.12
2019-04-14T14:42:15.005Z,1.62
2019-04-14T14:44:58.372Z,3.72
2019-04-14T14:47:26.514Z,2.65
2019-04-14T14:49:57.391Z,1.62
2019-04-14T14:52:23.652Z,2.37
2019-04-14T14:54:49.885Z,1.70
2019-04-14T14:57:16.041Z,2.10
2019-04-14T14:59:42.386Z,1.50
2019-04-14T15:02:08.735Z,2.95
2019-04-14T15:04:35.178Z,1.87
2019-04-14T15:07:01.685Z,2.47
2019-04-14T15:09:28.020Z,1.57
2019-04-14T15:11:54.272Z,2.25
2019-04-14T15:14:20.750Z,1.98
2019-04-14T15:16:47.180Z,1.50
2019-04-14T15:19:13.417Z,1.70
2019-04-14T15:21:39.993Z,1.50
2019-04-14T15:24:06.425Z,1.42
2019-04-14T15:26:32.760Z,1.85
2019-04-14T15:28:59.158Z,2.08
2019-04-14T15:31:25.929Z,2.25
2019-04-14T15:33:52.366Z,1.77
2019-04-14T15:36:18.895Z,2.10
2019-04-14T15:38:45.320Z,1.55
2019-04-14T15:41:12.655Z,1.45
2019-04-14T15:43:39.209Z,1.52
2019-04-14T15:46:05.538Z,2.05
2019-04-14T15:48:31.873Z,1.60
2019-04-14T15:50:58.268Z,1.87
2019-04-14T15:53:36.942Z,2.00
2019-04-14T15:55:52.974Z,1.87
2019-04-14T15:58:32.922Z,1.70
2019-04-14T16:01:12.893Z,1.50
2019-04-14T16:03:46.802Z,1.82
2019-04-14T16:06:15.036Z,1.60
2019-04-14T16:08:49.324Z,2.27
2019-04-14T16:11:17.466Z,1.60
2019-04-14T16:14:02.317Z,1.55
2019-04-14T16:16:36.302Z,1.50
2019-04-14T16:19:07.517Z,1.50
2019-04-14T16:21:33.863Z,3.58
2019-04-14T16:24:00.195Z,2.90
2019-04-14T16:26:31.257Z,1.65
2019-04-14T16:29:02.454Z,1.40
2019-04-14T16:31:38.533Z,1.95
2019-04-14T16:34:12.596Z,1.60
2019-04-14T16:36:39.621Z,1.50
2019-04-14T16:39:06.244Z,1.62
2019-04-14T16:41:32.837Z,1.92
2019-04-14T16:43:59.175Z,1.50
2019-04-14T16:46:25.425Z,2.27
2019-04-14T16:48:51.852Z,2.77
2019-04-14T16:51:22.989Z,1.35
2019-04-14T16:53:49.329Z,1.62
2019-04-14T16:56:20.193Z,1.57
2019-04-14T16:58:48.549Z,3.12
2019-04-14T17:01:25.786Z,2.10
2019-04-14T17:03:52.120Z,1.67
2019-04-14T17:06:18.357Z,3.90
2019-04-14T17:08:44.812Z,1.50
2019-04-14T17:11:11.246Z,1.70
2019-04-14T17:13:39.391Z,1.67
2019-04-14T17:16:23.875Z,1.77
2019-04-14T17:18:57.800Z,2.85
2019-04-14T17:21:34.961Z,1.60
2019-04-14T17:24:15.965Z,1.57
2019-04-14T17:26:36.169Z,1.62
2019-04-14T17:29:16.409Z,2.60
2019-04-14T17:32:01.344Z,2.33
2019-04-14T17:34:35.193Z,1.60
2019-04-14T17:37:03.524Z,1.50
2019-04-14T17:39:37.716Z,3.87
2019-04-14T17:42:06.205Z,1.40
2019-04-14T17:44:43.457Z,2.12
2019-04-14T17:47:14.474Z,1.57
2019-04-14T17:49:51.668Z,1.50
2019-04-14T17:52:28.693Z,1.65
2019-04-14T17:54:59.913Z,2.15
2019-04-14T17:57:44.645Z,1.50
2019-04-14T18:00:24.853Z,1.50
2019-04-14T18:03:09.732Z,1.60
2019-04-14T18:05:43.764Z,1.30
2019-04-14T18:08:23.993Z,2.02
2019-04-14T18:10:52.225Z,1.80
2019-04-14T18:13:29.345Z,3.75
2019-04-14T18:16:06.551Z,2.83
2019-04-14T18:18:51.205Z,1.50
2019-04-14T18:21:17.638Z,1.50
2019-04-14T18:23:43.977Z,2.22
2019-04-14T18:26:10.494Z,1.80
2019-04-14T18:28:47.376Z,1.67
2019-04-14T18:31:30.834Z,2.40
2019-04-14T18:34:12.396Z,2.22
2019-04-14T18:36:57.460Z,1.60
2019-04-14T18:39:42.200Z,1.40
2019-04-14T18:42:16.143Z,2.40
2019-04-14T18:44:44.553Z,3.17
2019-04-14T18:47:27.731Z,1.50
2019-04-14T18:50:07.766Z,1.80
2019-04-14T18:52:47.952Z,1.80
2019-04-14T18:55:33.948Z,1.60
2019-04-14T18:58:07.173Z,1.72
2019-04-14T19:00:38.406Z,2.05
2019-04-14T19:03:04.765Z,1.85
2019-04-14T19:05:31.121Z,2.20
2019-04-14T19:07:57.466Z,3.25
2019-04-14T19:10:23.799Z,1.57
2019-04-14T19:12:52.153Z,6.00
2019-04-14T19:15:25.994Z,2.45
2019-04-14T19:17:54.262Z,1.77
2019-04-14T19:20:21.600Z,2.35
2019-04-14T19:22:47.952Z,2.45
2019-04-14T19:25:14.414Z,2.00
2019-04-14T19:27:40.854Z,2.23
2019-04-14T19:30:08.800Z,2.58
2019-04-14T19:32:35.246Z,2.50
2019-04-14T19:35:01.597Z,2.87
2019-04-14T19:37:27.950Z,4.30
2019-04-14T19:39:54.304Z,2.65
2019-04-14T19:42:20.748Z,3.50
2019-04-14T19:44:47.101Z,2.43
2019-04-14T19:47:14.196Z,2.02
2019-04-14T19:49:40.613Z,2.47
2019-04-14T19:52:06.963Z,4.83
2019-04-14T19:54:33.428Z,1.55
2019-04-14T19:56:59.645Z,3.73
2019-04-14T19:59:25.905Z,2.87
2019-04-14T20:01:52.531Z,4.75
2019-04-14T20:04:18.754Z,2.62
2019-04-14T20:06:45.095Z,4.35
2019-04-14T20:09:11.557Z,3.77
2019-04-14T20:11:38.204Z,3.95
2019-04-14T20:14:04.737Z,3.03
2019-04-14T20:16:33.219Z,3.57
2019-04-14T20:19:10.549Z,3.50
2019-04-14T20:21:55.142Z,3.30
2019-04-14T20:24:29.372Z,2.70
2019-04-14T20:27:13.805Z,4.95
2019-04-14T20:29:50.726Z,2.90
2019-04-14T20:32:19.015Z,4.22
2019-04-14T20:34:45.465Z,3.73
2019-04-14T20:37:11.789Z,3.37
2019-04-14T20:39:38.354Z,4.13
2019-04-14T20:42:06.201Z,3.37
2019-04-14T20:44:32.945Z,7.05
2019-04-14T20:46:59.397Z,3.03
2019-04-14T20:49:25.752Z,3.40
2019-04-14T20:51:52.189Z,3.53
2019-04-14T20:54:18.575Z,4.47
2019-04-14T20:56:44.829Z,4.10
2019-04-14T20:59:11.061Z,5.37
2019-04-14T21:01:39.521Z,2.57
2019-04-14T21:04:10.374Z,3.97
2019-04-14T21:06:38.507Z,7.13
2019-04-14T21:09:21.776Z,5.67
2019-04-14T21:11:50.121Z,3.20
2019-04-14T21:14:33.369Z,2.60
2019-04-14T21:17:04.557Z,3.87
2019-04-14T21:19:50.752Z,6.07
2019-04-14T21:22:27.617Z,4.30
2019-04-14T21:24:55.943Z,3.53
2019-04-14T21:27:26.729Z,3.53
2019-04-14T21:29:54.885Z,4.00
2019-04-14T21:32:23.339Z,5.93
2019-04-14T21:35:03.529Z,4.60
2019-04-14T21:37:46.793Z,3.07
2019-04-14T21:40:15.126Z,3.90
2019-04-14T21:42:42.471Z,4.77
2019-04-14T21:45:09.166Z,4.07
2019-04-14T21:47:35.585Z,7.63
2019-04-14T21:50:05.302Z,4.13
2019-04-14T21:52:36.442Z,10.47
2019-04-14T21:55:03.369Z,4.17
2019-04-14T21:57:31.632Z,5.00
2019-04-14T22:00:16.364Z,10.17
2019-04-14T22:03:01.390Z,4.03
2019-04-14T22:05:42.069Z,4.33
2019-04-14T22:08:16.161Z,7.73
2019-04-14T22:10:44.667Z,3.00
2019-04-14T22:13:11.006Z,7.47
2019-04-14T22:15:37.343Z,7.30
2019-04-14T22:18:04.029Z,6.30
2019-04-14T22:20:30.368Z,4.10
2019-04-14T22:22:57.868Z,4.60
2019-04-14T22:25:24.458Z,8.57
2019-04-14T22:27:50.788Z,4.23
2019-04-14T22:30:17.249Z,3.97
2019-04-14T22:32:43.868Z,6.77
2019-04-14T22:35:10.388Z,7.07
2019-04-14T22:37:36.730Z,5.77
2019-04-14T22:40:04.735Z,10.30
2019-04-14T22:42:30.912Z,5.20
2019-04-14T22:44:57.253Z,5.57
2019-04-14T22:47:23.593Z,7.97
2019-04-14T22:49:49.833Z,5.50
2019-04-14T22:52:16.072Z,8.20
2019-04-14T22:54:42.422Z,5.50
2019-04-14T22:57:08.660Z,6.90
2019-04-14T22:59:35.016Z,7.57
2019-04-14T23:02:06.137Z,8.10
2019-04-14T23:04:37.397Z,13.80
2019-04-14T23:07:05.743Z,7.33
2019-04-14T23:09:52.479Z,7.23
2019-04-14T23:12:20.720Z,3.60
2019-04-14T23:14:51.849Z,9.77
2019-04-14T23:17:20.098Z,7.80
2019-04-14T23:19:48.592Z,4.37
2019-04-14T23:22:16.874Z,8.37
2019-04-14T23:24:45.016Z,7.17
2019-04-14T23:27:11.262Z,4.70
2019-04-14T23:29:37.506Z,5.23
2019-04-14T23:32:04.385Z,5.53
2019-04-14T23:34:30.833Z,7.80
2019-04-14T23:36:57.080Z,5.50
2019-04-14T23:39:23.553Z,5.33
2019-04-14T23:41:49.890Z,6.10
2019-04-14T23:44:16.120Z,8.00
2019-04-14T23:46:42.566Z,5.60
2019-04-14T23:49:09.078Z,5.67
2019-04-14T23:51:35.540Z,5.97
2019-04-14T23:54:01.981Z,5.67
2019-04-14T23:56:28.351Z,5.07
2019-04-14T23:58:54.893Z,7.37
